Hillsborough, North Carolina
Current Conditions -  °F | °C
As of 1:56 AM on Monday 22 Dec 2014 (Local Time) from KIGX Reporting Station
Overcast Overcast  
Wind Chill: 33°   Ceiling: 3300
Heat Index: 39°   Visibility: 10mi
Dew Point: 32°   Wind: 9mph
Humidity: 76%   Direction: 40°NE
Pressure: 30.2"   Gusts: NA
Location:  36.08°N, 79.1°W
Report Text: KIGX 220656Z AUTO 04008KT 10SM OVC033 04/00 A3020 RMK AO2 RAE04 SLP225 P0000 T00390000
Loading
Personal Weather Stations






























Interactive Weather Map New forecast layout! Learn more

10-Day Weather Forecast

Advertisements
Track Severe Weather on mobile